HEMA

Details ICAO HEMA (RMF)
Name MARSA ALAM INTL
Region Egypt
Timezone Africa/Cairo (UTC+2.0)
Plans Departing 75
Arriving 122
Stats Elevation 251 ft / 77 m (AMSL)
Location 25.557113° 34.583711°
Runways 1
Magnetic Variation 4.075° E
Sunrise 2017-12-14 04:20:57 UTC / 2017-12-14 06:20:57 Local
Sunset 2017-12-14 14:54:27 UTC / 2017-12-14 16:54:27 Local
Advertisement - Login to hide

Runways

ID Width Length Bearing (true) Bearing (mag) Surface Threshold Offset Overrun Length
15 148 ft / 45 m 9,875 ft / 3,010 m 149.89° 145.81° Asphalt 0 ft / 0 m 295 ft / 90 m
33 148 ft / 45 m 9,875 ft / 3,010 m 329.90° 325.82° Asphalt 0 ft / 0 m 295 ft / 90 m

Map

Weather


0- 5 10 15 20 25 30 35+ Temperature / ° C

Clouds and Precipitation
Forecast for 2017-12-14 00:00 UTC. Updated an hour ago

Ground ~20,000 ft ~40,000 ft Winds

METAR

HEMA 132200Z 31011KT CAVOK 19/12 Q1016 NOSIG

TAF

Not found

Frequencies

Ground 121.90 MHz GND
Approach 121.00 MHz APP
Tower 121.00 MHz TWR
Warning: Do not use this data for real-world aviation or navigation. No guarantee of current accuracy is given.